sensor_id;sensor_type;location;lat;lon;timestamp;temperature;humidity
46283;DHT22;32017;43.700;11.820;2023-09-18T00:00:38;17.70;99.90
46283;DHT22;32017;43.700;11.820;2023-09-18T00:02:58;17.60;99.90
46283;DHT22;32017;43.700;11.820;2023-09-18T00:05:18;17.60;99.90
46283;DHT22;32017;43.700;11.820;2023-09-18T00:07:38;17.50;99.90
46283;DHT22;32017;43.700;11.820;2023-09-18T00:09:58;17.50;99.90
46283;DHT22;32017;43.700;11.820;2023-09-18T00:12:18;17.40;99.90
46283;DHT22;32017;43.700;11.820;2023-09-18T00:14:39;17.30;99.90
46283;DHT22;32017;43.700;11.820;2023-09-18T00:16:59;17.20;99.90
46283;DHT22;32017;43.700;11.820;2023-09-18T00:19:20;17.30;99.90
46283;DHT22;32017;43.700;11.820;2023-09-18T00:21:40;17.40;99.90
46283;DHT22;32017;43.700;11.820;2023-09-18T00:24:00;17.40;99.90
46283;DHT22;32017;43.700;11.820;2023-09-18T00:26:20;17.50;99.90
46283;DHT22;32017;43.700;11.820;2023-09-18T00:28:40;17.60;99.90
46283;DHT22;32017;43.700;11.820;2023-09-18T00:31:00;17.60;99.90
46283;DHT22;32017;43.700;11.820;2023-09-18T00:33:20;17.60;99.90
46283;DHT22;32017;43.700;11.820;2023-09-18T00:35:45;17.60;99.90
46283;DHT22;32017;43.700;11.820;2023-09-18T00:38:05;17.40;99.90
46283;DHT22;32017;43.700;11.820;2023-09-18T00:40:27;17.20;99.90
46283;DHT22;32017;43.700;11.820;2023-09-18T00:42:46;17.00;99.90
46283;DHT22;32017;43.700;11.820;2023-09-18T00:45:07;16.80;99.90
46283;DHT22;32017;43.700;11.820;2023-09-18T00:47:29;16.70;99.90
46283;DHT22;32017;43.700;11.820;2023-09-18T00:49:50;16.70;99.90
46283;DHT22;32017;43.700;11.820;2023-09-18T00:52:11;16.90;99.90
46283;DHT22;32017;43.700;11.820;2023-09-18T00:54:33;17.10;99.90
46283;DHT22;32017;43.700;11.820;2023-09-18T00:56:54;17.10;99.90
46283;DHT22;32017;43.700;11.820;2023-09-18T00:59:15;17.20;99.90
46283;DHT22;32017;43.700;11.820;2023-09-18T01:01:34;17.20;99.90
46283;DHT22;32017;43.700;11.820;2023-09-18T01:03:55;17.30;99.90
46283;DHT22;32017;43.700;11.820;2023-09-18T01:06:15;17.20;99.90
46283;DHT22;32017;43.700;11.820;2023-09-18T01:08:36;17.10;99.90
46283;DHT22;32017;43.700;11.820;2023-09-18T01:13:30;16.90;99.90
46283;DHT22;32017;43.700;11.820;2023-09-18T01:16:33;16.90;99.90
46283;DHT22;32017;43.700;11.820;2023-09-18T01:18:54;16.90;99.90
46283;DHT22;32017;43.700;11.820;2023-09-18T01:21:15;16.80;99.90
46283;DHT22;32017;43.700;11.820;2023-09-18T01:23:35;16.70;99.90
46283;DHT22;32017;43.700;11.820;2023-09-18T01:25:55;16.70;99.90
46283;DHT22;32017;43.700;11.820;2023-09-18T01:28:15;16.70;99.90
46283;DHT22;32017;43.700;11.820;2023-09-18T01:30:36;16.60;99.90
46283;DHT22;32017;43.700;11.820;2023-09-18T01:32:58;16.60;99.90
46283;DHT22;32017;43.700;11.820;2023-09-18T01:35:18;16.60;99.90
46283;DHT22;32017;43.700;11.820;2023-09-18T01:37:39;16.60;99.90
46283;DHT22;32017;43.700;11.820;2023-09-18T01:40:01;16.50;99.90
46283;DHT22;32017;43.700;11.820;2023-09-18T01:42:22;16.50;99.90
46283;DHT22;32017;43.700;11.820;2023-09-18T01:44:43;16.40;99.90
46283;DHT22;32017;43.700;11.820;2023-09-18T01:47:04;16.50;99.90
46283;DHT22;32017;43.700;11.820;2023-09-18T01:49:33;16.50;99.90
46283;DHT22;32017;43.700;11.820;2023-09-18T01:51:54;16.60;99.90
46283;DHT22;32017;43.700;11.820;2023-09-18T01:54:14;16.60;99.90
46283;DHT22;32017;43.700;11.820;2023-09-18T01:56:34;16.50;99.90
46283;DHT22;32017;43.700;11.820;2023-09-18T01:58:55;16.60;99.90
46283;DHT22;32017;43.700;11.820;2023-09-18T02:01:15;16.40;99.90
46283;DHT22;32017;43.700;11.820;2023-09-18T02:03:35;16.30;99.90
46283;DHT22;32017;43.700;11.820;2023-09-18T02:06:16;16.30;99.90
46283;DHT22;32017;43.700;11.820;2023-09-18T02:08:36;16.30;99.90
46283;DHT22;32017;43.700;11.820;2023-09-18T02:10:56;16.30;99.90
46283;DHT22;32017;43.700;11.820;2023-09-18T02:13:17;16.40;99.90
46283;DHT22;32017;43.700;11.820;2023-09-18T02:15:38;16.40;99.90
46283;DHT22;32017;43.700;11.820;2023-09-18T02:17:58;16.60;99.90
46283;DHT22;32017;43.700;11.820;2023-09-18T02:20:18;16.70;99.90
46283;DHT22;32017;43.700;11.820;2023-09-18T02:22:39;16.60;99.90
46283;DHT22;32017;43.700;11.820;2023-09-18T02:25:02;16.70;99.90
46283;DHT22;32017;43.700;11.820;2023-09-18T02:27:22;16.60;99.90
46283;DHT22;32017;43.700;11.820;2023-09-18T02:29:42;16.60;99.90
46283;DHT22;32017;43.700;11.820;2023-09-18T02:32:02;16.60;99.90
46283;DHT22;32017;43.700;11.820;2023-09-18T02:34:23;16.70;99.90
46283;DHT22;32017;43.700;11.820;2023-09-18T02:36:43;16.70;99.90
46283;DHT22;32017;43.700;11.820;2023-09-18T02:39:03;16.60;99.90
46283;DHT22;32017;43.700;11.820;2023-09-18T02:41:23;16.40;99.90
46283;DHT22;32017;43.700;11.820;2023-09-18T02:43:43;16.40;99.90
46283;DHT22;32017;43.700;11.820;2023-09-18T02:46:05;16.30;99.90
46283;DHT22;32017;43.700;11.820;2023-09-18T02:48:25;16.40;99.90
46283;DHT22;32017;43.700;11.820;2023-09-18T02:50:45;16.50;99.90
46283;DHT22;32017;43.700;11.820;2023-09-18T02:53:07;16.50;99.90
46283;DHT22;32017;43.700;11.820;2023-09-18T02:55:28;16.50;99.90
46283;DHT22;32017;43.700;11.820;2023-09-18T02:57:48;16.60;99.90
46283;DHT22;32017;43.700;11.820;2023-09-18T03:00:08;16.50;99.90
46283;DHT22;32017;43.700;11.820;2023-09-18T03:02:29;16.50;99.90
46283;DHT22;32017;43.700;11.820;2023-09-18T03:04:50;16.40;99.90
46283;DHT22;32017;43.700;11.820;2023-09-18T03:07:12;16.40;99.90
46283;DHT22;32017;43.700;11.820;2023-09-18T03:09:33;16.30;99.90
46283;DHT22;32017;43.700;11.820;2023-09-18T03:11:52;16.30;99.90
46283;DHT22;32017;43.700;11.820;2023-09-18T03:14:13;16.20;99.90
46283;DHT22;32017;43.700;11.820;2023-09-18T03:16:33;16.20;99.90
46283;DHT22;32017;43.700;11.820;2023-09-18T03:18:53;16.20;99.90
46283;DHT22;32017;43.700;11.820;2023-09-18T03:21:14;16.10;99.90
46283;DHT22;32017;43.700;11.820;2023-09-18T03:23:35;16.10;99.90
46283;DHT22;32017;43.700;11.820;2023-09-18T03:25:55;16.00;99.90
46283;DHT22;32017;43.700;11.820;2023-09-18T03:28:15;16.00;99.90
46283;DHT22;32017;43.700;11.820;2023-09-18T03:30:35;16.00;99.90
46283;DHT22;32017;43.700;11.820;2023-09-18T03:32:56;16.10;99.90
46283;DHT22;32017;43.700;11.820;2023-09-18T03:35:17;16.10;99.90
46283;DHT22;32017;43.700;11.820;2023-09-18T03:37:38;16.00;99.90
46283;DHT22;32017;43.700;11.820;2023-09-18T03:39:58;15.80;99.90
46283;DHT22;32017;43.700;11.820;2023-09-18T03:42:19;15.70;99.90
46283;DHT22;32017;43.700;11.820;2023-09-18T03:44:39;15.80;99.90
46283;DHT22;32017;43.700;11.820;2023-09-18T03:46:59;15.80;99.90
46283;DHT22;32017;43.700;11.820;2023-09-18T03:49:20;15.80;99.90
46283;DHT22;32017;43.700;11.820;2023-09-18T03:51:40;15.90;99.90
46283;DHT22;32017;43.700;11.820;2023-09-18T03:54:00;16.10;99.90
46283;DHT22;32017;43.700;11.820;2023-09-18T03:56:21;16.10;99.90
46283;DHT22;32017;43.700;11.820;2023-09-18T03:58:41;16.10;99.90
46283;DHT22;32017;43.700;11.820;2023-09-18T04:01:01;16.10;99.90
46283;DHT22;32017;43.700;11.820;2023-09-18T04:03:22;16.10;99.90
46283;DHT22;32017;43.700;11.820;2023-09-18T04:05:42;16.10;99.90
46283;DHT22;32017;43.700;11.820;2023-09-18T04:08:02;16.00;99.90
46283;DHT22;32017;43.700;11.820;2023-09-18T04:10:22;15.90;99.90
46283;DHT22;32017;43.700;11.820;2023-09-18T04:12:42;15.90;99.90
46283;DHT22;32017;43.700;11.820;2023-09-18T04:15:03;15.80;99.90
46283;DHT22;32017;43.700;11.820;2023-09-18T04:17:23;15.70;99.90
46283;DHT22;32017;43.700;11.820;2023-09-18T04:19:44;15.70;99.90
46283;DHT22;32017;43.700;11.820;2023-09-18T04:22:04;15.60;99.90
46283;DHT22;32017;43.700;11.820;2023-09-18T04:24:25;15.60;99.90
46283;DHT22;32017;43.700;11.820;2023-09-18T04:26:45;15.60;99.90
46283;DHT22;32017;43.700;11.820;2023-09-18T04:29:05;15.60;99.90
46283;DHT22;32017;43.700;11.820;2023-09-18T04:31:25;15.60;99.90
46283;DHT22;32017;43.700;11.820;2023-09-18T04:33:46;15.70;99.90
46283;DHT22;32017;43.700;11.820;2023-09-18T04:36:06;15.70;99.90
46283;DHT22;32017;43.700;11.820;2023-09-18T04:38:27;15.80;99.90
46283;DHT22;32017;43.700;11.820;2023-09-18T04:40:47;15.80;99.90
46283;DHT22;32017;43.700;11.820;2023-09-18T04:43:07;15.80;99.90
46283;DHT22;32017;43.700;11.820;2023-09-18T04:45:27;15.80;99.90
46283;DHT22;32017;43.700;11.820;2023-09-18T04:47:47;15.80;99.90
46283;DHT22;32017;43.700;11.820;2023-09-18T04:50:08;15.80;99.90
46283;DHT22;32017;43.700;11.820;2023-09-18T04:52:32;15.70;99.90
46283;DHT22;32017;43.700;11.820;2023-09-18T04:54:52;15.70;99.90
46283;DHT22;32017;43.700;11.820;2023-09-18T04:57:13;15.80;99.90
46283;DHT22;32017;43.700;11.820;2023-09-18T04:59:34;15.80;99.90
46283;DHT22;32017;43.700;11.820;2023-09-18T05:01:54;15.60;99.90
46283;DHT22;32017;43.700;11.820;2023-09-18T05:04:14;15.40;99.90
46283;DHT22;32017;43.700;11.820;2023-09-18T05:06:34;15.30;99.90
46283;DHT22;32017;43.700;11.820;2023-09-18T05:08:54;15.20;99.90
46283;DHT22;32017;43.700;11.820;2023-09-18T05:11:15;15.20;99.90
46283;DHT22;32017;43.700;11.820;2023-09-18T05:13:36;15.20;99.90
46283;DHT22;32017;43.700;11.820;2023-09-18T05:15:56;15.20;99.90
46283;DHT22;32017;43.700;11.820;2023-09-18T05:18:18;15.20;99.90
46283;DHT22;32017;43.700;11.820;2023-09-18T05:20:39;15.20;99.90
46283;DHT22;32017;43.700;11.820;2023-09-18T05:22:59;15.30;99.90
46283;DHT22;32017;43.700;11.820;2023-09-18T05:25:20;15.30;99.90
46283;DHT22;32017;43.700;11.820;2023-09-18T05:27:41;15.40;99.90
46283;DHT22;32017;43.700;11.820;2023-09-18T05:30:04;15.50;99.90
46283;DHT22;32017;43.700;11.820;2023-09-18T05:32:25;15.60;99.90
46283;DHT22;32017;43.700;11.820;2023-09-18T05:34:45;15.60;99.90
46283;DHT22;32017;43.700;11.820;2023-09-18T05:37:05;15.60;99.90
46283;DHT22;32017;43.700;11.820;2023-09-18T05:39:25;15.60;99.90
46283;DHT22;32017;43.700;11.820;2023-09-18T05:41:45;15.70;99.90
46283;DHT22;32017;43.700;11.820;2023-09-18T05:44:06;15.60;99.90
46283;DHT22;32017;43.700;11.820;2023-09-18T05:46:27;15.50;99.90
46283;DHT22;32017;43.700;11.820;2023-09-18T05:48:47;15.50;99.90
46283;DHT22;32017;43.700;11.820;2023-09-18T05:51:07;15.40;99.90
46283;DHT22;32017;43.700;11.820;2023-09-18T05:53:27;15.40;99.90
46283;DHT22;32017;43.700;11.820;2023-09-18T05:55:47;15.40;99.90
46283;DHT22;32017;43.700;11.820;2023-09-18T05:58:07;15.50;99.90
46283;DHT22;32017;43.700;11.820;2023-09-18T06:00:27;15.50;99.90
46283;DHT22;32017;43.700;11.820;2023-09-18T06:02:50;15.60;99.90
46283;DHT22;32017;43.700;11.820;2023-09-18T06:05:13;15.70;99.90
46283;DHT22;32017;43.700;11.820;2023-09-18T06:07:36;15.70;99.90
46283;DHT22;32017;43.700;11.820;2023-09-18T06:09:57;15.70;99.90
46283;DHT22;32017;43.700;11.820;2023-09-18T06:12:17;15.60;99.90
46283;DHT22;32017;43.700;11.820;2023-09-18T06:14:37;15.60;99.90
46283;DHT22;32017;43.700;11.820;2023-09-18T06:16:57;15.70;99.90
46283;DHT22;32017;43.700;11.820;2023-09-18T06:19:17;15.80;99.90
46283;DHT22;32017;43.700;11.820;2023-09-18T06:21:38;15.80;99.90
46283;DHT22;32017;43.700;11.820;2023-09-18T06:23:58;16.00;99.90
46283;DHT22;32017;43.700;11.820;2023-09-18T06:26:18;16.10;99.90
46283;DHT22;32017;43.700;11.820;2023-09-18T06:28:38;16.20;99.90
46283;DHT22;32017;43.700;11.820;2023-09-18T06:30:58;16.30;99.90
46283;DHT22;32017;43.700;11.820;2023-09-18T06:33:18;16.40;99.90
46283;DHT22;32017;43.700;11.820;2023-09-18T06:35:38;16.40;99.90
46283;DHT22;32017;43.700;11.820;2023-09-18T06:37:59;16.50;99.90
46283;DHT22;32017;43.700;11.820;2023-09-18T06:40:19;16.60;99.90
46283;DHT22;32017;43.700;11.820;2023-09-18T06:42:39;16.60;99.90
46283;DHT22;32017;43.700;11.820;2023-09-18T06:45:00;16.70;99.90
46283;DHT22;32017;43.700;11.820;2023-09-18T06:47:21;16.70;99.90
46283;DHT22;32017;43.700;11.820;2023-09-18T06:49:41;16.80;99.90
46283;DHT22;32017;43.700;11.820;2023-09-18T06:52:01;16.90;99.90
46283;DHT22;32017;43.700;11.820;2023-09-18T06:54:23;16.90;99.90
46283;DHT22;32017;43.700;11.820;2023-09-18T06:56:43;17.00;99.90
46283;DHT22;32017;43.700;11.820;2023-09-18T06:59:04;17.00;99.90
46283;DHT22;32017;43.700;11.820;2023-09-18T07:01:24;17.10;99.90
46283;DHT22;32017;43.700;11.820;2023-09-18T07:03:48;17.10;99.90
46283;DHT22;32017;43.700;11.820;2023-09-18T07:06:10;17.20;99.90
46283;DHT22;32017;43.700;11.820;2023-09-18T07:08:30;17.40;99.90
46283;DHT22;32017;43.700;11.820;2023-09-18T07:10:50;17.50;99.90
46283;DHT22;32017;43.700;11.820;2023-09-18T07:13:11;17.60;99.90
46283;DHT22;32017;43.700;11.820;2023-09-18T07:15:31;17.60;99.90
46283;DHT22;32017;43.700;11.820;2023-09-18T07:17:52;17.70;99.90
46283;DHT22;32017;43.700;11.820;2023-09-18T07:20:12;17.70;99.90
46283;DHT22;32017;43.700;11.820;2023-09-18T07:22:35;17.80;99.90
46283;DHT22;32017;43.700;11.820;2023-09-18T07:24:55;17.80;99.90
46283;DHT22;32017;43.700;11.820;2023-09-18T07:27:15;17.90;99.90
46283;DHT22;32017;43.700;11.820;2023-09-18T07:29:35;18.00;99.90
46283;DHT22;32017;43.700;11.820;2023-09-18T07:31:55;18.10;99.90
46283;DHT22;32017;43.700;11.820;2023-09-18T07:34:16;18.10;99.90
46283;DHT22;32017;43.700;11.820;2023-09-18T07:36:37;18.20;99.90
46283;DHT22;32017;43.700;11.820;2023-09-18T07:38:57;18.30;99.90
46283;DHT22;32017;43.700;11.820;2023-09-18T07:41:17;18.30;99.90
46283;DHT22;32017;43.700;11.820;2023-09-18T07:43:39;18.40;99.90
46283;DHT22;32017;43.700;11.820;2023-09-18T07:45:59;18.40;99.90
46283;DHT22;32017;43.700;11.820;2023-09-18T07:48:22;18.60;99.90
46283;DHT22;32017;43.700;11.820;2023-09-18T07:50:43;18.70;99.90
46283;DHT22;32017;43.700;11.820;2023-09-18T07:53:04;18.80;99.90
46283;DHT22;32017;43.700;11.820;2023-09-18T07:55:24;18.80;99.90
46283;DHT22;32017;43.700;11.820;2023-09-18T07:57:45;18.90;99.90
46283;DHT22;32017;43.700;11.820;2023-09-18T08:00:08;18.90;99.90
46283;DHT22;32017;43.700;11.820;2023-09-18T08:02:31;19.00;99.90
46283;DHT22;32017;43.700;11.820;2023-09-18T08:04:52;18.90;99.90
46283;DHT22;32017;43.700;11.820;2023-09-18T08:07:12;19.00;99.90
46283;DHT22;32017;43.700;11.820;2023-09-18T08:09:33;19.00;99.90
46283;DHT22;32017;43.700;11.820;2023-09-18T08:11:56;19.00;99.90
46283;DHT22;32017;43.700;11.820;2023-09-18T08:14:16;19.20;99.90
46283;DHT22;32017;43.700;11.820;2023-09-18T08:16:40;19.50;99.90
46283;DHT22;32017;43.700;11.820;2023-09-18T08:19:03;19.60;99.90
46283;DHT22;32017;43.700;11.820;2023-09-18T08:21:23;19.80;99.90
46283;DHT22;32017;43.700;11.820;2023-09-18T08:23:44;20.00;99.90
46283;DHT22;32017;43.700;11.820;2023-09-18T08:26:04;20.10;99.90
46283;DHT22;32017;43.700;11.820;2023-09-18T08:28:25;20.20;99.90
46283;DHT22;32017;43.700;11.820;2023-09-18T08:30:45;20.40;99.90
46283;DHT22;32017;43.700;11.820;2023-09-18T08:33:06;20.50;99.90
46283;DHT22;32017;43.700;11.820;2023-09-18T08:35:27;20.60;99.90
46283;DHT22;32017;43.700;11.820;2023-09-18T08:37:48;20.70;99.90
46283;DHT22;32017;43.700;11.820;2023-09-18T08:40:13;20.80;99.90
46283;DHT22;32017;43.700;11.820;2023-09-18T08:42:34;21.10;99.90
46283;DHT22;32017;43.700;11.820;2023-09-18T08:44:57;21.20;99.90
46283;DHT22;32017;43.700;11.820;2023-09-18T08:47:18;21.40;99.90
46283;DHT22;32017;43.700;11.820;2023-09-18T08:49:39;21.70;99.90
46283;DHT22;32017;43.700;11.820;2023-09-18T08:52:01;21.80;99.90
46283;DHT22;32017;43.700;11.820;2023-09-18T08:54:22;21.90;99.90
46283;DHT22;32017;43.700;11.820;2023-09-18T08:56:43;21.80;99.90
46283;DHT22;32017;43.700;11.820;2023-09-18T08:59:03;22.10;99.90
46283;DHT22;32017;43.700;11.820;2023-09-18T09:01:23;22.30;99.90
46283;DHT22;32017;43.700;11.820;2023-09-18T09:03:43;22.60;99.90
46283;DHT22;32017;43.700;11.820;2023-09-18T09:06:09;22.80;99.90
46283;DHT22;32017;43.700;11.820;2023-09-18T09:08:29;23.00;99.90
46283;DHT22;32017;43.700;11.820;2023-09-18T09:10:50;23.20;99.90
46283;DHT22;32017;43.700;11.820;2023-09-18T09:13:10;23.40;99.90
46283;DHT22;32017;43.700;11.820;2023-09-18T09:15:47;23.70;99.90
46283;DHT22;32017;43.700;11.820;2023-09-18T09:18:09;23.80;99.90
46283;DHT22;32017;43.700;11.820;2023-09-18T09:20:29;23.90;99.90
46283;DHT22;32017;43.700;11.820;2023-09-18T09:22:49;24.10;99.90
46283;DHT22;32017;43.700;11.820;2023-09-18T09:25:25;24.60;99.90
46283;DHT22;32017;43.700;11.820;2023-09-18T09:27:45;24.80;99.90
46283;DHT22;32017;43.700;11.820;2023-09-18T09:30:06;24.90;99.90
46283;DHT22;32017;43.700;11.820;2023-09-18T09:32:31;25.00;99.90
46283;DHT22;32017;43.700;11.820;2023-09-18T09:34:57;24.80;99.10
46283;DHT22;32017;43.700;11.820;2023-09-18T09:37:19;25.10;99.10
46283;DHT22;32017;43.700;11.820;2023-09-18T09:39:50;25.10;96.10
46283;DHT22;32017;43.700;11.820;2023-09-18T09:42:10;25.50;98.00
46283;DHT22;32017;43.700;11.820;2023-09-18T09:44:34;25.60;97.00
46283;DHT22;32017;43.700;11.820;2023-09-18T09:46:54;25.50;95.50
46283;DHT22;32017;43.700;11.820;2023-09-18T09:49:15;25.60;95.70
46283;DHT22;32017;43.700;11.820;2023-09-18T09:51:37;25.90;95.50
46283;DHT22;32017;43.700;11.820;2023-09-18T09:53:58;26.00;93.30
46283;DHT22;32017;43.700;11.820;2023-09-18T09:56:18;26.30;93.90
46283;DHT22;32017;43.700;11.820;2023-09-18T09:58:39;26.30;93.90
46283;DHT22;32017;43.700;11.820;2023-09-18T10:01:03;26.40;93.60
46283;DHT22;32017;43.700;11.820;2023-09-18T10:03:29;25.90;93.30
46283;DHT22;32017;43.700;11.820;2023-09-18T10:05:51;26.20;93.50
46283;DHT22;32017;43.700;11.820;2023-09-18T10:08:24;26.30;93.10
46283;DHT22;32017;43.700;11.820;2023-09-18T10:10:53;26.20;92.60
46283;DHT22;32017;43.700;11.820;2023-09-18T10:13:17;26.40;93.60
46283;DHT22;32017;43.700;11.820;2023-09-18T10:15:39;26.30;91.60
46283;DHT22;32017;43.700;11.820;2023-09-18T10:18:03;26.40;93.20
46283;DHT22;32017;43.700;11.820;2023-09-18T10:20:24;26.40;93.40
46283;DHT22;32017;43.700;11.820;2023-09-18T10:22:49;26.40;92.10
46283;DHT22;32017;43.700;11.820;2023-09-18T10:25:20;26.40;93.00
46283;DHT22;32017;43.700;11.820;2023-09-18T10:27:42;26.40;92.30
46283;DHT22;32017;43.700;11.820;2023-09-18T10:30:04;26.30;91.70
46283;DHT22;32017;43.700;11.820;2023-09-18T10:32:26;26.00;92.40
46283;DHT22;32017;43.700;11.820;2023-09-18T10:34:48;25.80;92.50
46283;DHT22;32017;43.700;11.820;2023-09-18T10:37:10;25.90;92.50
46283;DHT22;32017;43.700;11.820;2023-09-18T10:39:34;26.10;93.70
46283;DHT22;32017;43.700;11.820;2023-09-18T10:41:55;25.90;92.30
46283;DHT22;32017;43.700;11.820;2023-09-18T10:44:17;25.80;93.20
46283;DHT22;32017;43.700;11.820;2023-09-18T10:46:37;25.70;92.80
46283;DHT22;32017;43.700;11.820;2023-09-18T10:49:00;25.90;93.90
46283;DHT22;32017;43.700;11.820;2023-09-18T10:51:22;25.70;93.40
46283;DHT22;32017;43.700;11.820;2023-09-18T10:53:42;25.80;93.40
46283;DHT22;32017;43.700;11.820;2023-09-18T10:56:02;25.70;94.10
46283;DHT22;32017;43.700;11.820;2023-09-18T10:58:27;25.70;94.50
46283;DHT22;32017;43.700;11.820;2023-09-18T11:00:47;25.80;95.30
46283;DHT22;32017;43.700;11.820;2023-09-18T11:03:14;25.90;94.80
46283;DHT22;32017;43.700;11.820;2023-09-18T11:05:37;26.00;95.90
46283;DHT22;32017;43.700;11.820;2023-09-18T11:08:25;26.10;95.30
46283;DHT22;32017;43.700;11.820;2023-09-18T11:11:18;26.30;95.90
46283;DHT22;32017;43.700;11.820;2023-09-18T11:13:43;26.30;95.50
46283;DHT22;32017;43.700;11.820;2023-09-18T11:18:50;26.20;96.50
46283;DHT22;32017;43.700;11.820;2023-09-18T11:21:12;26.30;96.30
46283;DHT22;32017;43.700;11.820;2023-09-18T11:23:36;26.10;95.90
46283;DHT22;32017;43.700;11.820;2023-09-18T11:26:07;25.90;96.40
46283;DHT22;32017;43.700;11.820;2023-09-18T11:28:29;25.80;96.20
46283;DHT22;32017;43.700;11.820;2023-09-18T11:30:55;25.70;96.50
46283;DHT22;32017;43.700;11.820;2023-09-18T11:33:49;25.80;96.60
46283;DHT22;32017;43.700;11.820;2023-09-18T11:36:14;26.00;96.40
46283;DHT22;32017;43.700;11.820;2023-09-18T11:38:35;25.90;96.70
46283;DHT22;32017;43.700;11.820;2023-09-18T11:40:55;25.90;97.10
46283;DHT22;32017;43.700;11.820;2023-09-18T11:45:49;26.10;96.90
46283;DHT22;32017;43.700;11.820;2023-09-18T11:48:10;26.10;96.70
46283;DHT22;32017;43.700;11.820;2023-09-18T11:50:31;26.10;96.50
46283;DHT22;32017;43.700;11.820;2023-09-18T11:52:52;26.00;97.10
46283;DHT22;32017;43.700;11.820;2023-09-18T11:55:13;26.00;96.80
46283;DHT22;32017;43.700;11.820;2023-09-18T11:57:37;26.00;96.50
46283;DHT22;32017;43.700;11.820;2023-09-18T11:59:58;26.00;96.80
46283;DHT22;32017;43.700;11.820;2023-09-18T12:02:31;26.00;96.30
46283;DHT22;32017;43.700;11.820;2023-09-18T12:04:56;26.00;96.50
46283;DHT22;32017;43.700;11.820;2023-09-18T12:07:16;26.10;96.20
46283;DHT22;32017;43.700;11.820;2023-09-18T12:09:38;26.00;95.90
46283;DHT22;32017;43.700;11.820;2023-09-18T12:12:04;26.10;96.70
46283;DHT22;32017;43.700;11.820;2023-09-18T12:14:24;26.00;96.50
46283;DHT22;32017;43.700;11.820;2023-09-18T12:16:44;26.00;96.20
46283;DHT22;32017;43.700;11.820;2023-09-18T12:19:05;25.80;96.30
46283;DHT22;32017;43.700;11.820;2023-09-18T12:21:26;25.80;96.60
46283;DHT22;32017;43.700;11.820;2023-09-18T12:23:46;25.70;96.50
46283;DHT22;32017;43.700;11.820;2023-09-18T12:26:07;25.70;96.40
46283;DHT22;32017;43.700;11.820;2023-09-18T12:28:27;25.80;97.20
46283;DHT22;32017;43.700;11.820;2023-09-18T12:30:48;25.70;96.40
46283;DHT22;32017;43.700;11.820;2023-09-18T12:33:11;25.70;96.90
46283;DHT22;32017;43.700;11.820;2023-09-18T12:35:31;25.80;97.10
46283;DHT22;32017;43.700;11.820;2023-09-18T12:37:51;25.70;96.20
46283;DHT22;32017;43.700;11.820;2023-09-18T12:40:28;25.70;96.50
46283;DHT22;32017;43.700;11.820;2023-09-18T12:42:49;25.70;96.50
46283;DHT22;32017;43.700;11.820;2023-09-18T12:45:10;25.70;96.30
46283;DHT22;32017;43.700;11.820;2023-09-18T12:47:31;25.60;95.70
46283;DHT22;32017;43.700;11.820;2023-09-18T12:49:51;25.60;95.80
46283;DHT22;32017;43.700;11.820;2023-09-18T12:52:11;25.50;96.20
46283;DHT22;32017;43.700;11.820;2023-09-18T12:54:42;25.60;96.00
46283;DHT22;32017;43.700;11.820;2023-09-18T12:57:06;25.60;95.50
46283;DHT22;32017;43.700;11.820;2023-09-18T12:59:31;25.80;95.70
46283;DHT22;32017;43.700;11.820;2023-09-18T13:01:51;26.00;95.70
46283;DHT22;32017;43.700;11.820;2023-09-18T13:04:12;25.90;95.30
46283;DHT22;32017;43.700;11.820;2023-09-18T13:06:32;25.80;94.70
46283;DHT22;32017;43.700;11.820;2023-09-18T13:08:52;25.80;94.80
46283;DHT22;32017;43.700;11.820;2023-09-18T13:11:13;25.80;95.00
46283;DHT22;32017;43.700;11.820;2023-09-18T13:13:36;25.90;94.90
46283;DHT22;32017;43.700;11.820;2023-09-18T13:16:00;26.00;94.70
46283;DHT22;32017;43.700;11.820;2023-09-18T13:18:24;26.20;94.80
46283;DHT22;32017;43.700;11.820;2023-09-18T13:20:52;26.50;94.30
46283;DHT22;32017;43.700;11.820;2023-09-18T13:23:12;26.60;94.10
46283;DHT22;32017;43.700;11.820;2023-09-18T13:25:35;26.50;93.70
46283;DHT22;32017;43.700;11.820;2023-09-18T13:27:57;26.50;94.10
46283;DHT22;32017;43.700;11.820;2023-09-18T13:30:17;26.40;94.20
46283;DHT22;32017;43.700;11.820;2023-09-18T13:32:38;26.50;94.40
46283;DHT22;32017;43.700;11.820;2023-09-18T13:35:01;26.60;93.70
